createdAt,value
2018-05-09T00:00:36.998Z,527.13
2018-05-09T00:03:06.614Z,161.73
2018-05-09T00:05:37.968Z,120.83
2018-05-09T00:08:08.237Z,128.43
2018-05-09T00:10:38.943Z,110.13
2018-05-09T00:13:09.174Z,105.77
2018-05-09T00:15:39.019Z,114.23
2018-05-09T00:18:08.872Z,122.33
2018-05-09T00:20:39.634Z,126.13
2018-05-09T00:23:09.343Z,117.63
2018-05-09T00:25:39.996Z,99.37
2018-05-09T00:28:10.715Z,104.43
2018-05-09T00:30:40.583Z,124.20
2018-05-09T00:33:10.604Z,114.93
2018-05-09T00:35:40.944Z,125.67
2018-05-09T00:38:10.493Z,106.80
2018-05-09T00:40:40.105Z,114.23
2018-05-09T00:43:10.713Z,106.83
2018-05-09T00:45:42.332Z,105.93
2018-05-09T00:48:12.778Z,110.53
2018-05-09T00:50:42.668Z,107.33
2018-05-09T00:53:13.240Z,98.53
2018-05-09T00:55:44.284Z,91.90
2018-05-09T00:58:15.441Z,108.90
2018-05-09T01:00:47.820Z,123.23
2018-05-09T01:03:17.882Z,152.90
2018-05-09T01:05:47.385Z,938.53
2018-05-09T01:08:17.578Z,777.73
2018-05-09T01:10:47.165Z,1000.30
2018-05-09T01:13:16.867Z,1030.43
2018-05-09T01:15:46.573Z,839.73
2018-05-09T01:18:16.290Z,903.17
2018-05-09T01:20:45.994Z,861.60
2018-05-09T01:23:15.907Z,864.47
2018-05-09T01:25:46.394Z,752.77
2018-05-09T01:28:16.160Z,650.30
2018-05-09T01:30:47.389Z,947.37
2018-05-09T01:33:17.785Z,163.77
2018-05-09T01:35:47.321Z,202.90
2018-05-09T01:38:17.248Z,547.13
2018-05-09T01:40:46.973Z,304.13
2018-05-09T01:43:18.624Z,476.80
2018-05-09T01:45:48.172Z,294.50
2018-05-09T01:48:18.860Z,232.27
2018-05-09T01:50:48.633Z,101.50
2018-05-09T01:53:18.273Z,418.07
2018-05-09T01:55:47.808Z,334.07
2018-05-09T01:58:17.855Z,284.57
2018-05-09T02:00:48.280Z,306.53
2018-05-09T02:03:18.324Z,244.87
2018-05-09T02:05:48.051Z,58.93
2018-05-09T02:08:17.908Z,75.83
2018-05-09T02:10:47.697Z,82.93
2018-05-09T02:13:17.715Z,87.47
2018-05-09T02:15:47.525Z,70.50
2018-05-09T02:18:17.641Z,439.10
2018-05-09T02:20:47.172Z,884.17
2018-05-09T02:23:17.920Z,60.10
2018-05-09T02:25:48.452Z,63.57
2018-05-09T02:28:18.693Z,867.60
2018-05-09T02:30:48.221Z,836.03
2018-05-09T02:33:17.913Z,532.40
2018-05-09T02:35:47.589Z,468.27
2018-05-09T02:38:18.379Z,559.40
2018-05-09T02:40:48.006Z,46.00
2018-05-09T02:43:17.879Z,41.77
2018-05-09T02:45:47.738Z,192.33
2018-05-09T02:48:17.756Z,67.10
2018-05-09T02:50:48.283Z,55.37
2018-05-09T02:53:18.061Z,38.93
2018-05-09T02:55:47.921Z,34.70
2018-05-09T02:58:19.480Z,442.17
2018-05-09T03:00:49.017Z,259.93
2018-05-09T03:03:18.784Z,739.20
2018-05-09T03:05:48.347Z,461.20
2018-05-09T03:08:18.116Z,53.87
2018-05-09T03:10:47.809Z,72.63
2018-05-09T03:13:18.117Z,45.10
2018-05-09T03:15:47.678Z,57.70
2018-05-09T03:18:19.066Z,59.87
2018-05-09T03:20:49.147Z,58.83
2018-05-09T03:23:19.661Z,61.97
2018-05-09T03:25:50.073Z,48.90
2018-05-09T03:28:19.725Z,44.27
2018-05-09T03:30:49.297Z,45.00
2018-05-09T03:33:19.000Z,45.87
2018-05-09T03:35:48.534Z,40.20
2018-05-09T03:38:18.924Z,40.93
2018-05-09T03:40:48.650Z,36.47
2018-05-09T03:43:18.969Z,33.70
2018-05-09T03:45:48.682Z,33.83
2018-05-09T03:48:18.243Z,37.97
2018-05-09T03:50:47.819Z,48.63
2018-05-09T03:53:17.751Z,41.50
2018-05-09T03:55:47.306Z,46.03
2018-05-09T03:58:17.832Z,397.27
2018-05-09T04:00:47.316Z,114.43
2018-05-09T04:03:35.546Z,33.63
2018-05-09T04:06:24.434Z,57.23
2018-05-09T04:09:12.680Z,61.60
2018-05-09T04:11:42.163Z,58.20
2018-05-09T04:14:11.919Z,497.67
2018-05-09T04:16:41.745Z,300.23
2018-05-09T04:19:12.230Z,93.33
2018-05-09T04:21:42.119Z,668.20
2018-05-09T04:24:12.418Z,433.20
2018-05-09T04:26:42.250Z,169.70
2018-05-09T04:29:13.048Z,216.00
2018-05-09T04:31:42.786Z,415.10
2018-05-09T04:34:13.210Z,420.77
2018-05-09T04:36:44.432Z,616.07
2018-05-09T04:39:14.134Z,478.73
2018-05-09T04:41:43.836Z,288.47
2018-05-09T04:44:13.496Z,94.20
2018-05-09T04:46:43.173Z,81.73
2018-05-09T04:49:20.332Z,264.67
2018-05-09T04:51:49.836Z,386.30
2018-05-09T04:54:19.433Z,110.87
2018-05-09T04:56:49.101Z,44.80
2018-05-09T04:59:23.792Z,49.03
2018-05-09T05:01:53.675Z,47.00
2018-05-09T05:04:23.206Z,170.47
2018-05-09T05:06:52.912Z,61.50
2018-05-09T05:09:22.683Z,152.50
2018-05-09T05:11:53.157Z,107.70
2018-05-09T05:14:22.749Z,378.13
2018-05-09T05:16:52.500Z,450.33
2018-05-09T05:19:22.034Z,353.87
2018-05-09T05:21:51.649Z,439.73
2018-05-09T05:24:22.111Z,391.53
2018-05-09T05:26:51.830Z,570.83
2018-05-09T05:29:21.595Z,301.37
2018-05-09T05:31:51.379Z,320.97
2018-05-09T05:34:21.465Z,289.07
2018-05-09T05:36:51.277Z,364.80
2018-05-09T05:39:21.034Z,268.67
2018-05-09T05:41:52.124Z,373.90
2018-05-09T05:44:21.864Z,295.60
2018-05-09T05:46:51.432Z,245.20
2018-05-09T05:49:21.878Z,403.60
2018-05-09T05:51:51.420Z,251.97
2018-05-09T05:54:20.922Z,388.37
2018-05-09T05:56:50.471Z,247.53
2018-05-09T05:59:20.001Z,545.70
2018-05-09T06:01:49.654Z,260.90
2018-05-09T06:04:20.033Z,987.43
2018-05-09T06:06:49.707Z,622.77
2018-05-09T06:09:19.459Z,596.77
2018-05-09T06:11:50.490Z,131.40
2018-05-09T06:14:20.982Z,591.60
2018-05-09T06:16:50.532Z,750.87
2018-05-09T06:19:20.800Z,445.83
2018-05-09T06:21:50.613Z,589.87
2018-05-09T06:24:20.339Z,378.07
2018-05-09T06:26:50.173Z,334.40
2018-05-09T06:29:20.314Z,905.03
2018-05-09T06:31:49.948Z,431.13
2018-05-09T06:34:19.782Z,669.13
2018-05-09T06:36:49.416Z,44.70
2018-05-09T06:39:19.979Z,997.77
2018-05-09T06:41:49.471Z,65.97
2018-05-09T06:44:19.142Z,118.77
2018-05-09T06:46:48.946Z,87.50
2018-05-09T06:49:19.344Z,355.63
2018-05-09T06:51:49.175Z,584.67
2018-05-09T06:54:18.740Z,352.40
2018-05-09T06:56:48.394Z,552.13
2018-05-09T06:59:18.123Z,280.27
2018-05-09T07:01:49.659Z,701.40
2018-05-09T07:04:19.891Z,603.60
2018-05-09T07:06:49.653Z,549.27
2018-05-09T07:09:20.612Z,230.83
2018-05-09T07:11:50.081Z,12.63
2018-05-09T07:14:19.557Z,732.27
2018-05-09T07:16:49.224Z,550.57
2018-05-09T07:19:18.829Z,484.93
2018-05-09T07:21:48.536Z,588.13
2018-05-09T07:24:18.656Z,163.17
2018-05-09T07:26:48.912Z,36.43
2018-05-09T07:29:19.420Z,81.97
2018-05-09T07:31:50.503Z,660.30
2018-05-09T07:34:20.200Z,334.20
2018-05-09T07:36:50.820Z,552.07
2018-05-09T07:39:22.321Z,318.17
2018-05-09T07:41:53.445Z,745.67
2018-05-09T07:44:24.475Z,374.23
2018-05-09T07:46:54.205Z,412.43
2018-05-09T07:49:24.653Z,116.57
2018-05-09T07:51:54.205Z,324.70
2018-05-09T07:54:23.840Z,162.13
2018-05-09T07:57:08.028Z,391.77
2018-05-09T07:59:39.431Z,297.20
2018-05-09T08:02:10.717Z,829.03
2018-05-09T08:04:41.153Z,550.73
2018-05-09T08:07:12.819Z,993.57
2018-05-09T08:09:46.262Z,225.87
2018-05-09T08:12:21.294Z,64.93
2018-05-09T08:14:50.971Z,80.60
2018-05-09T08:17:20.862Z,64.60
2018-05-09T08:19:50.654Z,20.87
2018-05-09T08:22:21.050Z,11.13
2018-05-09T08:24:50.669Z,11.60
2018-05-09T08:27:20.191Z,18.67
2018-05-09T08:29:49.855Z,13.30
2018-05-09T08:32:20.565Z,10.07
2018-05-09T08:34:50.649Z,11.30
2018-05-09T08:37:21.367Z,9.37
2018-05-09T08:39:53.397Z,8.67
2018-05-09T08:42:24.974Z,7.77
2018-05-09T08:44:57.193Z,8.30
2018-05-09T08:47:26.861Z,7.77
2018-05-09T08:49:56.362Z,7.20
2018-05-09T08:52:26.079Z,7.73
2018-05-09T08:54:55.801Z,6.87
2018-05-09T08:57:25.375Z,5.20
2018-05-09T08:59:55.421Z,8.20
2018-05-09T09:02:24.920Z,7.97
2018-05-09T09:04:54.517Z,8.40
2018-05-09T09:07:24.032Z,5.57
2018-05-09T09:09:53.725Z,5.80
2018-05-09T09:12:23.274Z,6.33
2018-05-09T09:14:52.975Z,6.77
2018-05-09T09:17:22.597Z,6.77
2018-05-09T09:19:52.190Z,5.78
2018-05-09T09:22:21.943Z,5.12
2018-05-09T09:24:52.461Z,6.75
2018-05-09T09:27:36.683Z,5.25
2018-05-09T09:30:14.076Z,5.97
2018-05-09T09:32:43.777Z,6.35
2018-05-09T09:37:58.786Z,5.43
2018-05-09T09:40:28.577Z,4.12
2018-05-09T09:42:59.137Z,5.55
2018-05-09T09:45:29.706Z,6.65
2018-05-09T09:48:00.687Z,4.43
2018-05-09T09:50:31.492Z,6.40
2018-05-09T09:53:01.924Z,8.27
2018-05-09T09:55:31.566Z,4.82
2018-05-09T09:58:02.315Z,5.80
2018-05-09T10:00:32.845Z,5.37
2018-05-09T10:03:03.856Z,5.95
2018-05-09T10:05:35.144Z,6.60
2018-05-09T10:08:06.454Z,8.15
2018-05-09T10:10:37.100Z,6.37
2018-05-09T10:13:07.781Z,6.70
2018-05-09T10:15:38.055Z,5.37
2018-05-09T10:18:07.569Z,4.35
2018-05-09T10:20:37.143Z,6.15
2018-05-09T10:23:07.013Z,9.20
2018-05-09T10:25:36.584Z,7.65
2018-05-09T10:28:06.211Z,5.25
2018-05-09T10:30:35.808Z,4.97
2018-05-09T10:33:05.368Z,4.55
2018-05-09T10:35:35.733Z,7.50
2018-05-09T10:38:05.258Z,6.97
2018-05-09T10:40:34.957Z,6.22
2018-05-09T10:43:04.734Z,5.95
2018-05-09T10:45:34.231Z,6.83
2018-05-09T10:48:04.769Z,8.07
2018-05-09T10:50:35.212Z,8.57
2018-05-09T10:53:04.841Z,6.97
2018-05-09T10:55:34.372Z,6.18
2018-05-09T10:58:04.078Z,6.53
2018-05-09T11:00:34.145Z,5.47
2018-05-09T11:03:25.579Z,7.05
2018-05-09T11:09:37.704Z,7.57
2018-05-09T11:12:21.756Z,6.05
2018-05-09T11:14:51.256Z,6.25
2018-05-09T11:17:20.868Z,5.28
2018-05-09T11:19:50.846Z,5.32
2018-05-09T11:22:21.241Z,6.50
2018-05-09T11:24:51.045Z,5.70
2018-05-09T11:27:20.660Z,4.60
2018-05-09T11:29:50.285Z,5.70
2018-05-09T11:32:19.731Z,6.05
2018-05-09T11:34:49.186Z,5.10
2018-05-09T11:37:18.754Z,7.40
2018-05-09T11:39:48.184Z,4.70
2018-05-09T11:42:18.103Z,7.28
2018-05-09T11:44:50.035Z,7.12
2018-05-09T11:47:20.927Z,4.78
2018-05-09T11:49:50.409Z,5.35
2018-05-09T11:52:20.064Z,5.20
2018-05-09T11:54:50.563Z,6.85
2018-05-09T11:57:20.048Z,6.93
2018-05-09T11:59:49.770Z,6.97
2018-05-09T12:02:19.721Z,6.70
2018-05-09T12:04:49.801Z,7.30
2018-05-09T12:07:19.428Z,6.55
2018-05-09T12:09:52.216Z,6.28
2018-05-09T12:12:22.161Z,6.32
2018-05-09T12:14:52.701Z,6.82
2018-05-09T12:17:22.736Z,7.10
2018-05-09T12:19:52.407Z,7.82
2018-05-09T12:22:22.685Z,5.85
2018-05-09T12:24:52.149Z,5.65
2018-05-09T12:27:22.822Z,6.65
2018-05-09T12:29:52.349Z,7.85
2018-05-09T12:32:30.288Z,6.28
2018-05-09T12:35:01.737Z,6.72
2018-05-09T12:37:31.488Z,6.37
2018-05-09T12:40:01.163Z,8.57
2018-05-09T12:42:30.819Z,7.05
2018-05-09T12:45:00.388Z,5.60
2018-05-09T12:47:30.958Z,7.12
2018-05-09T12:50:00.618Z,6.18
2018-05-09T12:52:30.841Z,6.07
2018-05-09T12:55:01.214Z,5.97
2018-05-09T12:57:30.922Z,8.07
2018-05-09T13:00:00.513Z,6.55
2018-05-09T13:02:30.138Z,5.25
2018-05-09T13:04:59.705Z,8.80
2018-05-09T13:07:30.045Z,5.10
2018-05-09T13:09:59.670Z,5.72
2018-05-09T13:12:29.451Z,5.47
2018-05-09T13:15:00.027Z,5.57
2018-05-09T13:32:39.083Z,8.00
2018-05-09T13:35:09.241Z,8.17
2018-05-09T13:37:38.813Z,6.77
2018-05-09T13:40:08.366Z,8.27
2018-05-09T17:06:08.263Z,5.10
2018-05-09T17:08:38.864Z,5.87
2018-05-09T17:11:08.390Z,5.30
2018-05-09T17:13:38.505Z,8.43
2018-05-09T17:16:08.096Z,8.10
2018-05-09T17:18:38.876Z,10.77
2018-05-09T17:21:42.404Z,7.30
2018-05-09T17:24:13.280Z,6.03
2018-05-09T17:26:43.143Z,6.07
2018-05-09T17:29:12.906Z,8.40
2018-05-09T17:31:42.511Z,9.57
2018-05-09T17:34:12.188Z,8.40
2018-05-09T17:36:42.060Z,6.97
2018-05-09T17:39:11.849Z,8.17
2018-05-09T17:41:42.282Z,8.30
2018-05-09T17:44:11.991Z,6.10
2018-05-09T17:46:41.620Z,9.50
2018-05-09T17:49:12.128Z,7.70
2018-05-09T17:51:43.679Z,7.00
2018-05-09T17:54:13.804Z,7.63
2018-05-09T17:56:44.873Z,7.17
2018-05-09T17:59:15.712Z,6.50
2018-05-09T18:01:47.165Z,6.13
2018-05-09T18:04:16.923Z,8.17
2018-05-09T18:06:50.022Z,6.83
2018-05-09T18:09:21.423Z,6.40
2018-05-09T18:11:57.484Z,7.20
2018-05-09T18:14:27.263Z,7.10
2018-05-09T18:16:56.859Z,11.67
2018-05-09T18:19:26.441Z,13.67
2018-05-09T18:21:56.129Z,15.80
2018-05-09T18:24:27.371Z,16.60
2018-05-09T18:26:58.684Z,16.23
2018-05-09T18:29:28.393Z,18.67
2018-05-09T18:31:58.352Z,15.90
2018-05-09T18:34:29.056Z,18.50
2018-05-09T18:36:58.950Z,18.30
2018-05-09T18:39:29.427Z,17.43
2018-05-09T18:41:59.402Z,19.83
2018-05-09T18:44:30.139Z,19.27
2018-05-09T18:47:00.479Z,15.13
2018-05-09T18:49:30.965Z,15.50
2018-05-09T18:52:01.422Z,14.00
2018-05-09T18:54:33.192Z,16.33
2018-05-09T18:57:06.508Z,14.53
2018-05-09T18:59:36.406Z,11.43
2018-05-09T19:02:06.644Z,14.10
2018-05-09T19:04:39.213Z,10.80
2018-05-09T19:07:10.120Z,11.90
2018-05-09T19:09:40.243Z,10.70
2018-05-09T19:12:10.518Z,13.40
2018-05-09T19:14:42.983Z,11.60
2018-05-09T19:17:13.281Z,11.00
2018-05-09T19:19:44.235Z,12.03
2018-05-09T19:22:15.277Z,13.23
2018-05-09T19:24:46.263Z,10.07
2018-05-09T19:27:16.646Z,11.50
2018-05-09T19:29:47.685Z,10.63
2018-05-09T19:32:17.519Z,12.70
2018-05-09T19:34:49.655Z,12.27
2018-05-09T19:37:24.346Z,11.90
2018-05-09T19:39:59.368Z,11.20
2018-05-09T19:42:30.294Z,12.20
2018-05-09T19:45:00.812Z,11.83
2018-05-09T19:47:32.131Z,12.93
2018-05-09T19:50:03.158Z,13.77
2018-05-09T19:52:33.298Z,12.63
2018-05-09T19:55:03.139Z,15.43
2018-05-09T19:57:35.684Z,13.83
2018-05-09T20:00:06.988Z,17.50
2018-05-09T20:02:37.404Z,16.67
2018-05-09T20:05:07.961Z,17.27
2018-05-09T20:07:37.651Z,18.07
2018-05-09T20:10:08.693Z,22.07
2018-05-09T20:12:38.619Z,20.03
2018-05-09T20:15:08.226Z,18.20
2018-05-09T20:17:38.905Z,19.37
2018-05-09T20:20:15.308Z,20.37
2018-05-09T20:22:45.021Z,16.47
2018-05-09T20:25:17.145Z,15.67
2018-05-09T20:27:46.736Z,15.73
2018-05-09T20:30:24.084Z,20.73
2018-05-09T20:32:53.693Z,20.37
2018-05-09T20:35:24.000Z,19.47
2018-05-09T20:37:54.053Z,19.20
2018-05-09T20:40:25.641Z,16.73
2018-05-09T20:42:55.065Z,17.50
2018-05-09T20:45:24.680Z,15.93
2018-05-09T20:47:54.669Z,18.63
2018-05-09T20:50:24.271Z,18.87
2018-05-09T20:52:53.863Z,19.10
2018-05-09T20:55:30.371Z,25.77
2018-05-09T20:58:00.356Z,527.47
2018-05-09T21:00:30.236Z,1999.90
2018-05-09T21:02:59.888Z,1590.00
2018-05-09T21:05:31.888Z,1369.80
2018-05-09T21:08:03.499Z,808.43
2018-05-09T21:10:33.396Z,1396.50
2018-05-09T21:13:05.070Z,27.23
2018-05-09T21:15:37.062Z,29.20
2018-05-09T21:18:13.850Z,24.83
2018-05-09T21:20:44.567Z,31.23
2018-05-09T21:23:22.088Z,28.93
2018-05-09T21:25:52.006Z,27.87
2018-05-09T21:28:21.787Z,28.00
2018-05-09T21:31:03.082Z,30.87
2018-05-09T21:33:32.779Z,30.03
2018-05-09T21:36:03.560Z,29.97
2018-05-09T21:38:33.394Z,28.97
2018-05-09T21:41:03.028Z,28.83
2018-05-09T21:43:33.550Z,34.87
2018-05-09T21:46:03.366Z,34.37
2018-05-09T21:48:33.408Z,40.67
2018-05-09T21:51:02.949Z,37.27
2018-05-09T21:53:32.542Z,40.03
2018-05-09T21:56:02.268Z,40.67
2018-05-09T21:58:32.587Z,39.27
2018-05-09T22:01:02.579Z,30.87
2018-05-09T22:03:33.150Z,34.13
2018-05-09T22:06:09.022Z,37.83
2018-05-09T22:08:40.104Z,37.47
2018-05-09T22:11:11.630Z,42.27
2018-05-09T22:13:42.708Z,391.00
2018-05-09T22:16:14.513Z,1258.00
2018-05-09T22:18:47.027Z,666.43
2018-05-09T22:21:16.625Z,775.90
2018-05-09T22:23:46.320Z,1627.03
2018-05-09T22:26:22.385Z,907.20
2018-05-09T22:28:52.640Z,1080.30
2018-05-09T22:31:36.265Z,378.13
2018-05-09T22:34:05.917Z,1032.57
2018-05-09T22:36:36.483Z,1131.07
2018-05-09T22:39:07.039Z,156.63
2018-05-09T22:41:44.998Z,486.77
2018-05-09T22:44:16.299Z,670.43
2018-05-09T22:46:46.639Z,62.70
2018-05-09T22:49:20.213Z,334.70
2018-05-09T22:51:50.233Z,21.93
2018-05-09T22:54:19.980Z,36.93
2018-05-09T22:56:49.816Z,206.27
2018-05-09T22:59:19.574Z,156.67
2018-05-09T23:01:50.670Z,59.87
2018-05-09T23:04:20.527Z,53.33
2018-05-09T23:06:52.299Z,73.70
2018-05-09T23:09:23.110Z,80.83
2018-05-09T23:11:57.147Z,88.80
2018-05-09T23:14:32.133Z,106.40
2018-05-09T23:17:01.931Z,78.73
2018-05-09T23:19:32.207Z,97.20
2018-05-09T23:22:03.624Z,70.87
2018-05-09T23:24:35.541Z,65.40
2018-05-09T23:27:05.534Z,62.63
2018-05-09T23:29:35.379Z,59.27
2018-05-09T23:32:06.660Z,60.10
2018-05-09T23:34:37.953Z,889.60
2018-05-09T23:37:07.650Z,55.83
2018-05-09T23:39:37.239Z,54.13
2018-05-09T23:42:08.112Z,57.67
2018-05-09T23:44:38.078Z,116.30
2018-05-09T23:47:07.757Z,895.03
2018-05-09T23:49:37.443Z,322.20
2018-05-09T23:52:07.468Z,265.97
2018-05-09T23:54:37.060Z,249.07
2018-05-09T23:57:08.348Z,559.13
2018-05-09T23:59:39.244Z,744.10
